createdAt,value
2022-12-03T00:10:18.932Z,101348.46
2022-12-03T00:20:24.573Z,101345.82
2022-12-03T00:30:28.164Z,101341.63
2022-12-03T00:40:31.784Z,101338.44
2022-12-03T00:50:35.414Z,101338.05
2022-12-03T01:00:39.080Z,101339.11
2022-12-03T01:10:42.672Z,101332.88
2022-12-03T01:20:46.297Z,101327.50
2022-12-03T01:31:22.398Z,101325.25
2022-12-03T01:41:26.807Z,101321.77
2022-12-03T01:51:31.171Z,101315.30
2022-12-03T02:01:34.878Z,101315.95
2022-12-03T02:11:49.956Z,101318.66
2022-12-03T02:22:09.124Z,101314.14
2022-12-03T02:32:12.738Z,101305.58
2022-12-03T02:42:35.596Z,101299.05
2022-12-03T02:52:41.117Z,101292.02
2022-12-03T03:02:46.850Z,101288.95
2022-12-03T03:12:53.046Z,101284.73
2022-12-03T03:23:10.871Z,101282.92
2022-12-03T03:33:16.275Z,101275.26
2022-12-03T03:43:22.385Z,101272.38
2022-12-03T03:53:26.562Z,101263.98
2022-12-03T04:03:30.298Z,101264.53
2022-12-03T04:13:33.846Z,101262.25
2022-12-03T04:23:37.509Z,101263.75
2022-12-03T04:33:59.893Z,101260.24
2022-12-03T04:44:22.424Z,101256.67
2022-12-03T04:54:27.336Z,101256.60
2022-12-03T05:04:30.932Z,101258.23
2022-12-03T05:14:38.076Z,101251.94
2022-12-03T05:24:41.715Z,101249.23
2022-12-03T05:34:45.353Z,101243.98
2022-12-03T05:44:48.978Z,101246.36
2022-12-03T05:54:52.868Z,101242.72
2022-12-03T06:04:56.852Z,101241.77
2022-12-03T06:15:00.686Z,101245.66
2022-12-03T06:25:06.793Z,101241.92
2022-12-03T06:35:10.836Z,101250.84
2022-12-03T06:45:14.413Z,101256.15
2022-12-03T06:55:18.025Z,101245.25
2022-12-03T07:05:21.717Z,101246.43
2022-12-03T07:15:25.336Z,101240.77
2022-12-03T07:25:29.310Z,101236.65
2022-12-03T07:35:32.867Z,101230.52
2022-12-03T07:45:36.471Z,101227.52
2022-12-03T07:55:40.103Z,101227.11
2022-12-03T08:05:43.825Z,101223.78
2022-12-03T08:15:47.463Z,101225.50
2022-12-03T08:25:53.013Z,101229.11
2022-12-03T08:35:56.638Z,101236.48
2022-12-03T08:46:00.544Z,101238.33
2022-12-03T09:07:22.530Z,101227.38
2022-12-03T09:17:26.869Z,101224.15
2022-12-03T09:27:30.576Z,101221.66
2022-12-03T09:37:34.377Z,101221.09
2022-12-03T09:47:40.689Z,101219.05
2022-12-03T09:57:44.544Z,101216.98
2022-12-03T10:07:50.929Z,101215.33
2022-12-03T10:17:55.521Z,101207.53
2022-12-03T10:28:01.830Z,101197.96
2022-12-03T10:38:22.481Z,101201.95
2022-12-03T10:48:27.658Z,101198.29
2022-12-03T10:58:37.961Z,101190.64
2022-12-03T11:08:45.024Z,101183.61
2022-12-03T11:18:59.675Z,101167.80
2022-12-03T11:29:04.765Z,101167.23
2022-12-03T11:39:08.963Z,101162.71
2022-12-03T11:49:31.676Z,101152.44
2022-12-03T11:59:35.510Z,101142.98
2022-12-03T12:09:53.744Z,101141.67
2022-12-03T12:31:25.986Z,101134.05
2022-12-03T12:41:29.763Z,101127.27
2022-12-03T13:01:55.639Z,101123.70
2022-12-03T13:12:04.154Z,101126.84
2022-12-03T13:22:20.732Z,101129.56
2022-12-03T13:32:44.275Z,101133.63
2022-12-03T13:42:48.930Z,101131.74
2022-12-03T14:03:13.228Z,101127.75
2022-12-03T14:13:16.974Z,101115.42
2022-12-03T14:23:29.390Z,101108.73
2022-12-03T14:33:32.938Z,101118.38
2022-12-03T14:43:36.496Z,101116.79
2022-12-03T14:53:40.064Z,101115.66
2022-12-03T15:03:43.687Z,101115.15
2022-12-03T15:13:56.248Z,101117.36
2022-12-03T15:24:09.131Z,101120.68
2022-12-03T15:34:28.279Z,101116.64
2022-12-03T15:44:32.065Z,101124.39
2022-12-03T15:54:55.506Z,101119.39
2022-12-03T16:05:20.125Z,101123.64
2022-12-03T16:15:29.743Z,101124.01
2022-12-03T16:26:01.855Z,101126.36
2022-12-03T16:36:18.172Z,101124.16
2022-12-03T16:57:34.206Z,101135.59
2022-12-03T17:07:38.061Z,101141.48
2022-12-03T17:17:41.819Z,101142.25
2022-12-03T17:27:47.106Z,101149.61
2022-12-03T17:37:50.937Z,101148.80
2022-12-03T17:47:54.626Z,101139.36
2022-12-03T17:57:58.354Z,101137.15
2022-12-03T18:08:02.067Z,101138.55
2022-12-03T18:18:05.956Z,101142.39
2022-12-03T18:28:09.711Z,101132.73
2022-12-03T18:38:16.399Z,101126.99
2022-12-03T18:48:20.127Z,101125.95
2022-12-03T18:58:24.938Z,101126.48
2022-12-03T19:08:28.561Z,101128.73
2022-12-03T19:18:32.339Z,101141.02
2022-12-03T19:28:36.326Z,101143.20
2022-12-03T19:38:39.939Z,101137.05
2022-12-03T19:48:43.638Z,101131.75
2022-12-03T19:58:48.339Z,101141.20
2022-12-03T20:08:56.773Z,101143.77
2022-12-03T20:19:03.178Z,101146.67
2022-12-03T20:29:06.872Z,101144.60
2022-12-03T20:39:10.620Z,101149.01
2022-12-03T20:49:14.282Z,101143.29
2022-12-03T20:59:18.600Z,101137.25
2022-12-03T21:09:24.669Z,101136.77
2022-12-03T21:19:28.398Z,101134.26
2022-12-03T21:29:32.038Z,101133.31
2022-12-03T21:39:35.915Z,101128.02
2022-12-03T21:49:39.597Z,101130.61
2022-12-03T21:59:43.228Z,101135.36
2022-12-03T22:09:46.985Z,101133.55
2022-12-03T22:19:50.811Z,101133.61
2022-12-03T22:29:54.667Z,101131.84
2022-12-03T22:39:58.757Z,101133.98
2022-12-03T22:50:02.478Z,101140.80
2022-12-03T23:00:10.166Z,101150.08
2022-12-03T23:10:13.899Z,101143.13
2022-12-03T23:20:17.545Z,101141.72
2022-12-03T23:30:21.103Z,101131.50
2022-12-03T23:40:24.765Z,101130.42
2022-12-03T23:50:32.229Z,101140.48
